Current | Forecast
Updated: 5:30 PM CET on February 21, 2018
Observed at Alicante, Spain
Temperature 13°C
Humidity 72%
Dew Point 8°C
Wind ENE at 37 km/h
Pressure 1005 hPa (Steady)
Conditions Mostly Cloudy
Visibility 10.0 kilometers
UV 0 out of 16
Clouds (FEW) : 762 m
Mostly Cloudy (BKN) : 1828 m
Yesterday's Maximum 21°C
Yesterday's Minimum 7°C approx.
Yesterday's Heating Degree Days 8 approx.
Sunrise7:48 AM CET
Sunset6:50 PM CET
Moon Rise11:01 AM CET
Moon Set
Moon PhaseMoon Phase
Waxing Crescent
Raw METARMETAR LEAL 211630Z 07020KT 9999 FEW025TCU BKN060 13/08 Q1005 NOSIG


Monday
. High: 95° F.
Tuesday
. High: 95° F.
Wednesday
. High: 80° F.
Thursday
. High: 82° F.
Friday
. High: 78° F.
Saturday
. High: 89° F.
Sunday
. High: 87° F.
Monday
. High: 82° F.

Click here for Marine Information
Scientific forecaster discussion (NWS)

Units: English | Metric

Find the Weather for any City, State or Zipcode, or Country:

U.S. State List | Severe Weather | Tropical Storms | Ski Conditions
United States | Canada | Central America | South America | Asia | Europe | Australia | Africa | Islands

Weather Underground

© Copyright 2018
The Weather Company, LLC